sensor_id;sensor_type;location;lat;lon;timestamp;pressure;altitude;pressure_sealevel;temperature;humidity
58686;BME280;44465;53.206;-6.106;2023-05-02T00:01:45;102220.72;;;18.50;58.56
58686;BME280;44465;53.206;-6.106;2023-05-02T00:04:10;102231.31;;;18.54;58.53
58686;BME280;44465;53.206;-6.106;2023-05-02T00:06:36;102246.34;;;18.58;58.82
58686;BME280;44465;53.206;-6.106;2023-05-02T00:09:02;102242.72;;;18.61;58.90
58686;BME280;44465;53.206;-6.106;2023-05-02T00:11:28;102235.72;;;18.55;58.70
58686;BME280;44465;53.206;-6.106;2023-05-02T00:13:53;102202.38;;;18.36;58.71
58686;BME280;44465;53.206;-6.106;2023-05-02T00:16:19;102256.88;;;18.65;58.85
58686;BME280;44465;53.206;-6.106;2023-05-02T00:18:44;102233.91;;;18.57;58.74
58686;BME280;44465;53.206;-6.106;2023-05-02T00:21:10;102237.38;;;18.61;58.57
58686;BME280;44465;53.206;-6.106;2023-05-02T00:23:35;102241.88;;;18.59;58.38
58686;BME280;44465;53.206;-6.106;2023-05-02T00:26:01;102237.22;;;18.69;58.41
58686;BME280;44465;53.206;-6.106;2023-05-02T00:28:26;102170.72;;;18.20;58.92
58686;BME280;44465;53.206;-6.106;2023-05-02T00:30:52;102227.78;;;18.54;58.64
58686;BME280;44465;53.206;-6.106;2023-05-02T00:33:18;102243.53;;;18.65;58.43
58686;BME280;44465;53.206;-6.106;2023-05-02T00:35:43;102252.22;;;18.73;58.43
58686;BME280;44465;53.206;-6.106;2023-05-02T00:38:09;102212.78;;;18.47;58.36
58686;BME280;44465;53.206;-6.106;2023-05-02T00:40:50;102241.81;;;18.62;58.11
58686;BME280;44465;53.206;-6.106;2023-05-02T00:43:17;102254.91;;;18.73;58.33
58686;BME280;44465;53.206;-6.106;2023-05-02T00:45:43;102224.09;;;18.58;58.33
58686;BME280;44465;53.206;-6.106;2023-05-02T00:48:10;102248.69;;;18.72;58.54
58686;BME280;44465;53.206;-6.106;2023-05-02T00:50:37;102258.50;;;18.72;58.60
58686;BME280;44465;53.206;-6.106;2023-05-02T00:53:03;102278.75;;;18.81;58.60
58686;BME280;44465;53.206;-6.106;2023-05-02T00:55:30;102260.19;;;18.76;58.45
58686;BME280;44465;53.206;-6.106;2023-05-02T00:57:57;102253.19;;;18.72;58.46
58686;BME280;44465;53.206;-6.106;2023-05-02T01:00:53;102257.50;;;18.78;58.29
58686;BME280;44465;53.206;-6.106;2023-05-02T01:09:11;102267.13;;;18.83;58.07
58686;BME280;44465;53.206;-6.106;2023-05-02T01:11:58;102267.16;;;18.82;57.84
58686;BME280;44465;53.206;-6.106;2023-05-02T01:14:51;102231.13;;;18.62;58.40
58686;BME280;44465;53.206;-6.106;2023-05-02T01:17:15;102270.72;;;18.82;58.13
58686;BME280;44465;53.206;-6.106;2023-05-02T01:19:47;102261.78;;;18.83;58.15
58686;BME280;44465;53.206;-6.106;2023-05-02T01:22:15;102242.56;;;18.69;58.15
58686;BME280;44465;53.206;-6.106;2023-05-02T01:25:19;102274.22;;;18.86;57.66
58686;BME280;44465;53.206;-6.106;2023-05-02T01:30:33;102251.31;;;18.74;58.17
58686;BME280;44465;53.206;-6.106;2023-05-02T01:33:01;102241.59;;;18.71;58.24
58686;BME280;44465;53.206;-6.106;2023-05-02T01:35:29;102281.19;;;18.91;58.09
58686;BME280;44465;53.206;-6.106;2023-05-02T01:37:58;102272.41;;;18.86;58.11
58686;BME280;44465;53.206;-6.106;2023-05-02T01:40:25;102287.38;;;18.95;57.89
58686;BME280;44465;53.206;-6.106;2023-05-02T01:42:52;102262.75;;;18.81;57.86
58686;BME280;44465;53.206;-6.106;2023-05-02T01:45:20;102283.78;;;18.96;58.34
58686;BME280;44465;53.206;-6.106;2023-05-02T01:47:46;102281.13;;;18.95;57.98
58686;BME280;44465;53.206;-6.106;2023-05-02T01:50:17;102265.31;;;18.85;57.81
58686;BME280;44465;53.206;-6.106;2023-05-02T01:52:46;102286.41;;;18.98;58.00
58686;BME280;44465;53.206;-6.106;2023-05-02T01:55:14;102278.53;;;18.91;57.92
58686;BME280;44465;53.206;-6.106;2023-05-02T01:57:42;102251.19;;;18.80;57.90
58686;BME280;44465;53.206;-6.106;2023-05-02T02:00:10;102268.81;;;18.87;57.91
58686;BME280;44465;53.206;-6.106;2023-05-02T02:02:41;102268.72;;;18.92;57.69
58686;BME280;44465;53.206;-6.106;2023-05-02T02:05:09;102289.88;;;19.03;57.91
58686;BME280;44465;53.206;-6.106;2023-05-02T02:07:55;102289.88;;;19.03;57.78
58686;BME280;44465;53.206;-6.106;2023-05-02T02:10:24;102269.59;;;18.92;58.21
58686;BME280;44465;53.206;-6.106;2023-05-02T02:12:53;102254.72;;;18.82;58.13
58686;BME280;44465;53.206;-6.106;2023-05-02T02:15:26;102287.28;;;19.00;58.07
58686;BME280;44465;53.206;-6.106;2023-05-02T02:18:09;102287.22;;;19.01;57.88
58686;BME280;44465;53.206;-6.106;2023-05-02T02:20:36;102284.53;;;19.03;58.00
58686;BME280;44465;53.206;-6.106;2023-05-02T02:23:05;102293.31;;;19.08;58.01
58686;BME280;44465;53.206;-6.106;2023-05-02T02:25:33;102282.91;;;18.96;58.16
58686;BME280;44465;53.206;-6.106;2023-05-02T02:28:00;102293.34;;;19.05;57.95
58686;BME280;44465;53.206;-6.106;2023-05-02T02:30:26;102244.06;;;18.81;58.27
58686;BME280;44465;53.206;-6.106;2023-05-02T02:32:54;102295.00;;;19.12;57.90
58686;BME280;44465;53.206;-6.106;2023-05-02T02:35:20;102256.38;;;18.86;57.84
58686;BME280;44465;53.206;-6.106;2023-05-02T02:40:44;102293.31;;;19.08;57.88
58686;BME280;44465;53.206;-6.106;2023-05-02T02:43:19;102276.47;;;19.04;57.66
58686;BME280;44465;53.206;-6.106;2023-05-02T02:48:37;102282.63;;;19.08;57.91
58686;BME280;44465;53.206;-6.106;2023-05-02T02:51:10;102285.25;;;19.10;57.92
58686;BME280;44465;53.206;-6.106;2023-05-02T02:56:48;102300.28;;;19.14;57.80
58686;BME280;44465;53.206;-6.106;2023-05-02T02:59:22;102252.69;;;18.94;57.54
58686;BME280;44465;53.206;-6.106;2023-05-02T03:02:11;102286.13;;;19.10;57.45
58686;BME280;44465;53.206;-6.106;2023-05-02T03:04:40;102305.53;;;19.18;57.70
58686;BME280;44465;53.206;-6.106;2023-05-02T03:07:07;102282.63;;;19.08;57.60
58686;BME280;44465;53.206;-6.106;2023-05-02T03:09:43;102289.72;;;19.09;57.26
58686;BME280;44465;53.206;-6.106;2023-05-02T03:12:13;102287.00;;;19.11;57.64
58686;BME280;44465;53.206;-6.106;2023-05-02T03:14:40;102288.69;;;19.15;57.48
58686;BME280;44465;53.206;-6.106;2023-05-02T03:17:06;102290.47;;;19.16;57.53
58686;BME280;44465;53.206;-6.106;2023-05-02T03:19:36;102304.44;;;19.27;57.57
58686;BME280;44465;53.206;-6.106;2023-05-02T03:22:03;102293.88;;;19.21;57.41
58686;BME280;44465;53.206;-6.106;2023-05-02T03:24:28;102277.22;;;19.11;57.43
58686;BME280;44465;53.206;-6.106;2023-05-02T03:26:55;102245.59;;;18.91;57.33
58686;BME280;44465;53.206;-6.106;2023-05-02T03:29:25;102282.47;;;19.14;57.50
58686;BME280;44465;53.206;-6.106;2023-05-02T03:31:51;102280.69;;;19.15;57.18
58686;BME280;44465;53.206;-6.106;2023-05-02T03:34:18;102297.41;;;19.23;57.38
58686;BME280;44465;53.206;-6.106;2023-05-02T03:36:46;102306.38;;;19.20;57.10
58686;BME280;44465;53.206;-6.106;2023-05-02T03:39:12;102299.28;;;19.19;57.06
58686;BME280;44465;53.206;-6.106;2023-05-02T03:41:37;102278.97;;;19.12;57.26
58686;BME280;44465;53.206;-6.106;2023-05-02T03:44:06;102255.91;;;19.08;57.23
58686;BME280;44465;53.206;-6.106;2023-05-02T03:46:32;102301.66;;;19.30;57.43
58686;BME280;44465;53.206;-6.106;2023-05-02T03:48:58;102293.81;;;19.24;56.93
58686;BME280;44465;53.206;-6.106;2023-05-02T03:51:24;102273.53;;;19.15;57.38
58686;BME280;44465;53.206;-6.106;2023-05-02T03:53:53;102295.41;;;19.31;57.38
58686;BME280;44465;53.206;-6.106;2023-05-02T03:56:19;102283.03;;;19.29;57.09
58686;BME280;44465;53.206;-6.106;2023-05-02T03:58:50;102275.06;;;19.26;57.29
58686;BME280;44465;53.206;-6.106;2023-05-02T04:01:19;102292.63;;;19.36;57.08
58686;BME280;44465;53.206;-6.106;2023-05-02T04:03:49;102275.06;;;19.26;56.87
58686;BME280;44465;53.206;-6.106;2023-05-02T04:06:16;102297.97;;;19.36;56.94
58686;BME280;44465;53.206;-6.106;2023-05-02T04:08:45;102254.22;;;19.04;57.00
58686;BME280;44465;53.206;-6.106;2023-05-02T04:11:10;102305.16;;;19.34;57.09
58686;BME280;44465;53.206;-6.106;2023-05-02T04:13:36;102296.19;;;19.36;57.03
58686;BME280;44465;53.206;-6.106;2023-05-02T04:16:02;102277.03;;;19.19;56.69
58686;BME280;44465;53.206;-6.106;2023-05-02T04:18:32;102294.38;;;19.37;56.66
58686;BME280;44465;53.206;-6.106;2023-05-02T04:24:09;102283.81;;;19.34;56.83
58686;BME280;44465;53.206;-6.106;2023-05-02T04:26:36;102272.28;;;19.30;57.00
58686;BME280;44465;53.206;-6.106;2023-05-02T04:29:21;102274.09;;;19.30;56.59
58686;BME280;44465;53.206;-6.106;2023-05-02T04:31:56;102283.69;;;19.37;56.71
58686;BME280;44465;53.206;-6.106;2023-05-02T04:34:24;102261.88;;;19.19;56.89
58686;BME280;44465;53.206;-6.106;2023-05-02T04:36:49;102237.28;;;19.06;56.82
58686;BME280;44465;53.206;-6.106;2023-05-02T04:39:19;102295.19;;;19.41;56.72
58686;BME280;44465;53.206;-6.106;2023-05-02T04:41:55;102281.94;;;19.36;56.69
58686;BME280;44465;53.206;-6.106;2023-05-02T04:44:23;102285.63;;;19.32;56.75
58686;BME280;44465;53.206;-6.106;2023-05-02T04:46:48;102282.00;;;19.34;56.66
58686;BME280;44465;53.206;-6.106;2023-05-02T04:49:14;102273.13;;;19.32;56.77
58686;BME280;44465;53.206;-6.106;2023-05-02T04:51:39;102285.47;;;19.38;56.59
58686;BME280;44465;53.206;-6.106;2023-05-02T04:54:06;102255.56;;;19.24;56.50
58686;BME280;44465;53.206;-6.106;2023-05-02T04:56:31;102287.16;;;19.41;56.80
58686;BME280;44465;53.206;-6.106;2023-05-02T04:58:57;102253.06;;;19.16;56.27
58686;BME280;44465;53.206;-6.106;2023-05-02T05:01:23;102265.28;;;19.26;56.66
58686;BME280;44465;53.206;-6.106;2023-05-02T05:03:53;102230.13;;;19.07;56.41
58686;BME280;44465;53.206;-6.106;2023-05-02T05:06:19;102289.84;;;19.41;56.77
58686;BME280;44465;53.206;-6.106;2023-05-02T05:08:44;102285.41;;;19.41;56.61
58686;BME280;44465;53.206;-6.106;2023-05-02T05:11:11;102283.63;;;19.40;56.36
58686;BME280;44465;53.206;-6.106;2023-05-02T05:13:37;102276.59;;;19.36;56.56
58686;BME280;44465;53.206;-6.106;2023-05-02T05:16:04;102282.78;;;19.40;56.41
58686;BME280;44465;53.206;-6.106;2023-05-02T05:18:32;102296.88;;;19.45;56.67
58686;BME280;44465;53.206;-6.106;2023-05-02T05:21:08;102301.34;;;19.44;56.50
58686;BME280;44465;53.206;-6.106;2023-05-02T05:23:35;102249.50;;;19.15;56.39
58686;BME280;44465;53.206;-6.106;2023-05-02T05:26:14;102304.03;;;19.43;56.20
58686;BME280;44465;53.206;-6.106;2023-05-02T05:28:43;102280.28;;;19.30;56.22
58686;BME280;44465;53.206;-6.106;2023-05-02T05:31:12;102309.38;;;19.44;56.24
58686;BME280;44465;53.206;-6.106;2023-05-02T05:33:38;102306.69;;;19.44;56.38
58686;BME280;44465;53.206;-6.106;2023-05-02T05:36:09;102312.03;;;19.44;56.16
58686;BME280;44465;53.206;-6.106;2023-05-02T05:38:35;102314.66;;;19.46;56.17
58686;BME280;44465;53.206;-6.106;2023-05-02T05:41:02;102306.75;;;19.41;56.37
58686;BME280;44465;53.206;-6.106;2023-05-02T05:43:28;102312.84;;;19.48;56.32
58686;BME280;44465;53.206;-6.106;2023-05-02T05:45:54;102294.31;;;19.40;56.25
58686;BME280;44465;53.206;-6.106;2023-05-02T05:48:22;102275.97;;;19.26;56.26
58686;BME280;44465;53.206;-6.106;2023-05-02T05:50:47;102266.38;;;19.17;56.11
58686;BME280;44465;53.206;-6.106;2023-05-02T05:53:14;102303.25;;;19.39;56.14
58686;BME280;44465;53.206;-6.106;2023-05-02T05:55:41;102297.16;;;19.34;56.24
58686;BME280;44465;53.206;-6.106;2023-05-02T05:58:07;102254.94;;;19.12;56.23
58686;BME280;44465;53.206;-6.106;2023-05-02T06:00:35;102308.34;;;19.48;56.14
58686;BME280;44465;53.206;-6.106;2023-05-02T06:03:01;102317.28;;;19.47;56.16
58686;BME280;44465;53.206;-6.106;2023-05-02T06:05:30;102315.53;;;19.46;56.27
58686;BME280;44465;53.206;-6.106;2023-05-02T06:07:56;102324.38;;;19.48;56.11
58686;BME280;44465;53.206;-6.106;2023-05-02T06:10:22;102311.16;;;19.44;56.11
58686;BME280;44465;53.206;-6.106;2023-05-02T06:12:48;102313.69;;;19.48;56.14
58686;BME280;44465;53.206;-6.106;2023-05-02T06:15:15;102309.38;;;19.44;55.79
58686;BME280;44465;53.206;-6.106;2023-05-02T06:17:41;102317.22;;;19.50;56.21
58686;BME280;44465;53.206;-6.106;2023-05-02T06:20:07;102296.00;;;19.44;56.07
58686;BME280;44465;53.206;-6.106;2023-05-02T06:22:34;102288.00;;;19.43;56.18
58686;BME280;44465;53.206;-6.106;2023-05-02T06:24:59;102280.06;;;19.41;56.13
58686;BME280;44465;53.206;-6.106;2023-05-02T06:27:25;102288.81;;;19.46;56.19
58686;BME280;44465;53.206;-6.106;2023-05-02T06:29:51;102273.00;;;19.37;56.17
58686;BME280;44465;53.206;-6.106;2023-05-02T06:32:16;102286.97;;;19.48;55.74
58686;BME280;44465;53.206;-6.106;2023-05-02T06:34:42;102301.13;;;19.52;56.00
58686;BME280;44465;53.206;-6.106;2023-05-02T06:37:08;102307.38;;;19.52;55.92
58686;BME280;44465;53.206;-6.106;2023-05-02T06:39:33;102311.88;;;19.50;55.80
58686;BME280;44465;53.206;-6.106;2023-05-02T06:42:00;102275.00;;;19.29;56.07
58686;BME280;44465;53.206;-6.106;2023-05-02T06:44:27;102310.97;;;19.51;55.99
58686;BME280;44465;53.206;-6.106;2023-05-02T06:46:52;102287.22;;;19.39;56.04
58686;BME280;44465;53.206;-6.106;2023-05-02T06:49:20;102278.53;;;19.31;56.16
58686;BME280;44465;53.206;-6.106;2023-05-02T06:51:46;102277.63;;;19.32;55.94
58686;BME280;44465;53.206;-6.106;2023-05-02T06:54:11;102294.31;;;19.40;55.96
58686;BME280;44465;53.206;-6.106;2023-05-02T06:56:37;102291.72;;;19.37;55.96
58686;BME280;44465;53.206;-6.106;2023-05-02T06:59:02;102289.16;;;19.34;56.02
58686;BME280;44465;53.206;-6.106;2023-05-02T07:01:28;102283.69;;;19.37;55.89
58686;BME280;44465;53.206;-6.106;2023-05-02T07:03:53;102297.91;;;19.39;55.81
58686;BME280;44465;53.206;-6.106;2023-05-02T07:06:19;102322.41;;;19.57;55.83
58686;BME280;44465;53.206;-6.106;2023-05-02T07:08:45;102275.00;;;19.29;55.98
58686;BME280;44465;53.206;-6.106;2023-05-02T07:11:11;102243.41;;;19.10;55.42
58686;BME280;44465;53.206;-6.106;2023-05-02T07:13:36;102302.94;;;19.51;55.91
58686;BME280;44465;53.206;-6.106;2023-05-02T07:16:02;102273.06;;;19.35;55.77
58686;BME280;44465;53.206;-6.106;2023-05-02T07:18:28;102291.41;;;19.49;55.64
58686;BME280;44465;53.206;-6.106;2023-05-02T07:20:53;102262.53;;;19.29;56.16
58686;BME280;44465;53.206;-6.106;2023-05-02T07:23:19;102303.69;;;19.58;55.79
58686;BME280;44465;53.206;-6.106;2023-05-02T07:25:47;102271.13;;;19.42;55.76
58686;BME280;44465;53.206;-6.106;2023-05-02T07:28:13;102305.63;;;19.51;55.68
58686;BME280;44465;53.206;-6.106;2023-05-02T07:30:38;102255.47;;;19.27;55.88
58686;BME280;44465;53.206;-6.106;2023-05-02T07:33:04;102280.06;;;19.41;56.01
58686;BME280;44465;53.206;-6.106;2023-05-02T07:35:29;102299.25;;;19.57;55.83
58686;BME280;44465;53.206;-6.106;2023-05-02T07:37:55;102270.31;;;19.38;55.79
58686;BME280;44465;53.206;-6.106;2023-05-02T07:40:21;102307.16;;;19.62;55.88
58686;BME280;44465;53.206;-6.106;2023-05-02T07:42:47;102238.72;;;19.20;55.69
58686;BME280;44465;53.206;-6.106;2023-05-02T07:45:12;102305.34;;;19.62;55.84
58686;BME280;44465;53.206;-6.106;2023-05-02T07:47:38;102247.56;;;19.24;55.46
58686;BME280;44465;53.206;-6.106;2023-05-02T07:50:04;102305.56;;;19.55;55.57
58686;BME280;44465;53.206;-6.106;2023-05-02T07:52:30;102300.22;;;19.53;55.71
58686;BME280;44465;53.206;-6.106;2023-05-02T07:54:56;102308.97;;;19.60;55.68
58686;BME280;44465;53.206;-6.106;2023-05-02T07:57:21;102290.50;;;19.50;55.61
58686;BME280;44465;53.206;-6.106;2023-05-02T07:59:47;102314.13;;;19.67;55.61
58686;BME280;44465;53.206;-6.106;2023-05-02T08:02:13;102288.69;;;19.52;55.67
58686;BME280;44465;53.206;-6.106;2023-05-02T08:04:40;102311.47;;;19.66;55.61
58686;BME280;44465;53.206;-6.106;2023-05-02T08:07:06;102322.09;;;19.69;55.68
58686;BME280;44465;53.206;-6.106;2023-05-02T08:09:32;102272.94;;;19.40;55.62
58686;BME280;44465;53.206;-6.106;2023-05-02T08:11:58;102281.72;;;19.45;55.72
58686;BME280;44465;53.206;-6.106;2023-05-02T08:14:23;102251.00;;;19.27;55.67
58686;BME280;44465;53.206;-6.106;2023-05-02T08:16:49;102266.63;;;19.44;55.69
58686;BME280;44465;53.206;-6.106;2023-05-02T08:19:14;102307.81;;;19.70;55.62
58686;BME280;44465;53.206;-6.106;2023-05-02T08:21:40;102256.91;;;19.40;55.47
58686;BME280;44465;53.206;-6.106;2023-05-02T08:24:06;102321.97;;;19.75;55.74
58686;BME280;44465;53.206;-6.106;2023-05-02T08:26:32;102316.69;;;19.72;55.52
58686;BME280;44465;53.206;-6.106;2023-05-02T08:28:57;102247.31;;;19.33;55.30
58686;BME280;44465;53.206;-6.106;2023-05-02T08:31:23;102330.72;;;19.80;55.62
58686;BME280;44465;53.206;-6.106;2023-05-02T08:33:53;102334.19;;;19.86;55.53
58686;BME280;44465;53.206;-6.106;2023-05-02T08:36:19;102337.81;;;19.81;55.61
58686;BME280;44465;53.206;-6.106;2023-05-02T08:38:45;102329.13;;;19.73;55.61
58686;BME280;44465;53.206;-6.106;2023-05-02T08:41:11;102350.13;;;19.89;55.40
58686;BME280;44465;53.206;-6.106;2023-05-02T08:43:38;102344.91;;;19.86;55.46
58686;BME280;44465;53.206;-6.106;2023-05-02T08:46:05;102343.16;;;19.81;55.42
58686;BME280;44465;53.206;-6.106;2023-05-02T08:48:38;102286.91;;;19.51;55.44
58686;BME280;44465;53.206;-6.106;2023-05-02T08:51:08;102349.44;;;19.80;55.25
58686;BME280;44465;53.206;-6.106;2023-05-02T08:53:37;102372.31;;;19.94;55.26
58686;BME280;44465;53.206;-6.106;2023-05-02T08:56:11;102347.59;;;19.82;55.08
58686;BME280;44465;53.206;-6.106;2023-05-02T08:58:38;102357.31;;;19.88;55.43
58686;BME280;44465;53.206;-6.106;2023-05-02T09:01:18;102375.81;;;19.96;55.32
58686;BME280;44465;53.206;-6.106;2023-05-02T09:04:04;102380.25;;;19.97;55.12
58686;BME280;44465;53.206;-6.106;2023-05-02T09:06:30;102357.25;;;19.90;55.59
58686;BME280;44465;53.206;-6.106;2023-05-02T09:08:59;102381.06;;;20.01;55.36
58686;BME280;44465;53.206;-6.106;2023-05-02T09:11:26;102375.78;;;19.97;55.23
58686;BME280;44465;53.206;-6.106;2023-05-02T09:13:52;102323.94;;;19.67;55.26
58686;BME280;44465;53.206;-6.106;2023-05-02T09:16:23;102370.34;;;20.01;55.36
58686;BME280;44465;53.206;-6.106;2023-05-02T09:21:19;102390.78;;;20.03;55.06
58686;BME280;44465;53.206;-6.106;2023-05-02T09:28:47;102370.19;;;20.07;54.87
58686;BME280;44465;53.206;-6.106;2023-05-02T09:31:36;102354.25;;;20.02;55.11
58686;BME280;44465;53.206;-6.106;2023-05-02T09:34:11;102350.72;;;20.02;55.27
58686;BME280;44465;53.206;-6.106;2023-05-02T09:36:41;102348.72;;;20.08;55.39
58686;BME280;44465;53.206;-6.106;2023-05-02T09:39:09;102347.81;;;20.09;55.07
58686;BME280;44465;53.206;-6.106;2023-05-02T09:41:39;102359.41;;;20.10;55.42
58686;BME280;44465;53.206;-6.106;2023-05-02T09:44:08;102354.06;;;20.10;54.99
58686;BME280;44465;53.206;-6.106;2023-05-02T09:46:41;102338.81;;;20.13;55.14
58686;BME280;44465;53.206;-6.106;2023-05-02T09:49:07;102327.31;;;20.10;55.01
58686;BME280;44465;53.206;-6.106;2023-05-02T09:51:35;102344.09;;;20.15;55.46
58686;BME280;44465;53.206;-6.106;2023-05-02T09:54:01;102316.09;;;19.95;55.56
58686;BME280;44465;53.206;-6.106;2023-05-02T09:56:27;102351.25;;;20.14;55.13
58686;BME280;44465;53.206;-6.106;2023-05-02T09:59:12;102332.94;;;19.99;54.83
58686;BME280;44465;53.206;-6.106;2023-05-02T10:01:41;102339.13;;;20.01;55.00
58686;BME280;44465;53.206;-6.106;2023-05-02T10:04:13;102332.22;;;19.92;55.20
58686;BME280;44465;53.206;-6.106;2023-05-02T10:06:43;102366.28;;;20.19;55.29
58686;BME280;44465;53.206;-6.106;2023-05-02T10:09:09;102361.91;;;20.16;54.90
58686;BME280;44465;53.206;-6.106;2023-05-02T10:11:41;102336.38;;;20.04;54.94
58686;BME280;44465;53.206;-6.106;2023-05-02T10:14:11;102365.59;;;20.12;55.09
58686;BME280;44465;53.206;-6.106;2023-05-02T10:16:47;102329.47;;;19.95;54.85
58686;BME280;44465;53.206;-6.106;2023-05-02T10:19:19;102346.16;;;20.05;55.21
58686;BME280;44465;53.206;-6.106;2023-05-02T10:21:48;102374.31;;;20.19;55.11
58686;BME280;44465;53.206;-6.106;2023-05-02T10:24:14;102360.28;;;20.10;54.90
58686;BME280;44465;53.206;-6.106;2023-05-02T10:26:41;102374.41;;;20.15;54.74
58686;BME280;44465;53.206;-6.106;2023-05-02T10:29:08;102326.19;;;19.86;54.65
58686;BME280;44465;53.206;-6.106;2023-05-02T10:31:36;102351.41;;;20.08;54.52
58686;BME280;44465;53.206;-6.106;2023-05-02T10:34:06;102333.16;;;19.91;54.47
58686;BME280;44465;53.206;-6.106;2023-05-02T10:36:34;102379.84;;;20.12;54.85
58686;BME280;44465;53.206;-6.106;2023-05-02T10:39:01;102283.22;;;19.56;54.36
58686;BME280;44465;53.206;-6.106;2023-05-02T10:41:29;102364.94;;;20.02;54.54
58686;BME280;44465;53.206;-6.106;2023-05-02T10:43:56;102304.31;;;19.68;54.57
58686;BME280;44465;53.206;-6.106;2023-05-02T10:46:33;102383.31;;;20.16;54.55
58686;BME280;44465;53.206;-6.106;2023-05-02T10:49:17;102332.28;;;19.91;54.56
58686;BME280;44465;53.206;-6.106;2023-05-02T10:51:43;102357.78;;;20.04;54.59
58686;BME280;44465;53.206;-6.106;2023-05-02T10:57:00;102372.59;;;20.18;54.41
58686;BME280;44465;53.206;-6.106;2023-05-02T10:59:34;102370.97;;;20.10;54.53
58686;BME280;44465;53.206;-6.106;2023-05-02T11:02:01;102379.78;;;20.15;54.47
58686;BME280;44465;53.206;-6.106;2023-05-02T11:07:23;102366.53;;;20.11;54.52
58686;BME280;44465;53.206;-6.106;2023-05-02T11:09:49;102352.44;;;20.04;54.55
58686;BME280;44465;53.206;-6.106;2023-05-02T11:12:50;102360.28;;;20.10;54.46
58686;BME280;44465;53.206;-6.106;2023-05-02T11:18:04;102378.00;;;20.14;54.41
58686;BME280;44465;53.206;-6.106;2023-05-02T11:20:43;102383.28;;;20.18;54.33
58686;BME280;44465;53.206;-6.106;2023-05-02T11:25:41;102331.31;;;19.93;54.24
58686;BME280;44465;53.206;-6.106;2023-05-02T11:31:02;102387.56;;;20.23;54.45
58686;BME280;44465;53.206;-6.106;2023-05-02T11:33:28;102383.97;;;20.24;54.49
58686;BME280;44465;53.206;-6.106;2023-05-02T11:35:54;102351.34;;;20.11;54.17
58686;BME280;44465;53.206;-6.106;2023-05-02T11:38:22;102381.28;;;20.26;54.10
58686;BME280;44465;53.206;-6.106;2023-05-02T11:40:49;102369.78;;;20.22;54.05
58686;BME280;44465;53.206;-6.106;2023-05-02T11:43:17;102378.63;;;20.24;54.24
58686;BME280;44465;53.206;-6.106;2023-05-02T11:45:43;102376.91;;;20.22;54.05
58686;BME280;44465;53.206;-6.106;2023-05-02T11:48:11;102369.81;;;20.21;53.93
58686;BME280;44465;53.206;-6.106;2023-05-02T11:53:14;102368.09;;;20.18;53.43
58686;BME280;44465;53.206;-6.106;2023-05-02T11:55:45;102386.69;;;20.23;53.09
58686;BME280;44465;53.206;-6.106;2023-05-02T11:58:15;102349.69;;;20.07;53.19
58686;BME280;44465;53.206;-6.106;2023-05-02T12:00:42;102369.91;;;20.18;53.11
58686;BME280;44465;53.206;-6.106;2023-05-02T12:03:26;102375.28;;;20.16;53.18
58686;BME280;44465;53.206;-6.106;2023-05-02T12:05:54;102373.50;;;20.17;52.91
58686;BME280;44465;53.206;-6.106;2023-05-02T12:08:25;102360.19;;;20.13;52.64
58686;BME280;44465;53.206;-6.106;2023-05-02T12:10:52;102348.72;;;20.08;52.75
58686;BME280;44465;53.206;-6.106;2023-05-02T12:13:19;102343.38;;;20.08;52.70
58686;BME280;44465;53.206;-6.106;2023-05-02T12:15:44;102331.94;;;20.03;52.75
58686;BME280;44465;53.206;-6.106;2023-05-02T12:18:11;102345.13;;;20.11;52.83
58686;BME280;44465;53.206;-6.106;2023-05-02T12:20:37;102378.34;;;20.35;53.03
58686;BME280;44465;53.206;-6.106;2023-05-02T12:23:04;102380.09;;;20.36;53.20
58686;BME280;44465;53.206;-6.106;2023-05-02T12:25:35;102356.44;;;20.21;53.41
58686;BME280;44465;53.206;-6.106;2023-05-02T12:28:01;102324.66;;;20.08;53.58
58686;BME280;44465;53.206;-6.106;2023-05-02T12:30:28;102373.72;;;20.40;53.72
58686;BME280;44465;53.206;-6.106;2023-05-02T12:33:00;102349.06;;;20.29;53.55
58686;BME280;44465;53.206;-6.106;2023-05-02T12:35:28;102342.00;;;20.28;53.60
58686;BME280;44465;53.206;-6.106;2023-05-02T12:37:54;102374.75;;;20.36;53.75
58686;BME280;44465;53.206;-6.106;2023-05-02T12:40:31;102360.63;;;20.31;53.91
58686;BME280;44465;53.206;-6.106;2023-05-02T12:43:00;102374.84;;;20.33;53.77
58686;BME280;44465;53.206;-6.106;2023-05-02T12:45:31;102363.47;;;20.25;53.14
58686;BME280;44465;53.206;-6.106;2023-05-02T12:48:00;102395.00;;;20.45;52.85
58686;BME280;44465;53.206;-6.106;2023-05-02T12:50:44;102339.72;;;20.12;53.47
58686;BME280;44465;53.206;-6.106;2023-05-02T12:53:10;102365.69;;;20.40;53.20
58686;BME280;44465;53.206;-6.106;2023-05-02T12:55:36;102367.38;;;20.44;53.20
58686;BME280;44465;53.206;-6.106;2023-05-02T12:58:03;102371.63;;;20.52;53.18
58686;BME280;44465;53.206;-6.106;2023-05-02T13:00:30;102346.25;;;20.35;52.90
58686;BME280;44465;53.206;-6.106;2023-05-02T13:02:56;102340.31;;;20.24;53.01
58686;BME280;44465;53.206;-6.106;2023-05-02T13:05:22;102317.47;;;20.10;52.48
58686;BME280;44465;53.206;-6.106;2023-05-02T13:07:48;102394.81;;;20.53;52.38
58686;BME280;44465;53.206;-6.106;2023-05-02T13:10:13;102384.28;;;20.46;52.42
58686;BME280;44465;53.206;-6.106;2023-05-02T13:12:42;102382.72;;;20.38;52.71
58686;BME280;44465;53.206;-6.106;2023-05-02T13:15:07;102395.72;;;20.52;52.78
58686;BME280;44465;53.206;-6.106;2023-05-02T13:17:33;102387.88;;;20.45;52.52
58686;BME280;44465;53.206;-6.106;2023-05-02T13:19:59;102404.50;;;20.57;52.84
58686;BME280;44465;53.206;-6.106;2023-05-02T13:22:25;102412.44;;;20.60;53.02
58686;BME280;44465;53.206;-6.106;2023-05-02T13:24:51;102415.88;;;20.65;52.89
58686;BME280;44465;53.206;-6.106;2023-05-02T13:27:17;102361.38;;;20.36;53.08
58686;BME280;44465;53.206;-6.106;2023-05-02T13:29:43;102361.38;;;20.36;52.91
58686;BME280;44465;53.206;-6.106;2023-05-02T13:32:09;102368.38;;;20.40;52.86